createdAt,value
2023-05-01T00:00:05.677Z,88189.00
2023-05-01T00:01:05.486Z,88185.00
2023-05-01T00:02:05.490Z,88185.00
2023-05-01T00:03:05.573Z,88183.00
2023-05-01T00:04:05.641Z,88177.00
2023-05-01T00:05:05.614Z,88177.00
2023-05-01T00:06:05.598Z,88179.00
2023-05-01T00:07:05.545Z,88179.00
2023-05-01T00:08:05.545Z,88179.00
2023-05-01T00:09:05.594Z,88176.00
2023-05-01T00:10:05.592Z,88176.00
2023-05-01T00:11:05.619Z,88174.00
2023-05-01T00:12:05.620Z,88176.00
2023-05-01T00:13:05.621Z,88172.00
2023-05-01T00:14:05.650Z,88172.00
2023-05-01T00:15:05.691Z,88170.00
2023-05-01T00:16:05.758Z,88170.00
2023-05-01T00:17:05.728Z,88164.00
2023-05-01T00:18:05.750Z,88166.00
2023-05-01T00:19:05.763Z,88168.00
2023-05-01T00:20:05.763Z,88164.00
2023-05-01T00:21:05.773Z,88166.00
2023-05-01T00:22:05.768Z,88168.00
2023-05-01T00:23:05.771Z,88170.00
2023-05-01T00:24:05.803Z,88164.00
2023-05-01T00:25:05.799Z,88166.00
2023-05-01T00:26:05.810Z,88166.00
2023-05-01T00:27:05.830Z,88166.00
2023-05-01T00:28:05.804Z,88166.00
2023-05-01T00:29:05.816Z,88164.00
2023-05-01T00:30:05.892Z,88162.00
2023-05-01T00:31:05.879Z,88162.00
2023-05-01T00:32:05.945Z,88160.00
2023-05-01T00:33:05.910Z,88160.00
2023-05-01T00:34:05.866Z,88158.00
2023-05-01T00:35:05.844Z,88160.00
2023-05-01T00:36:05.843Z,88160.00
2023-05-01T00:37:05.838Z,88160.00
2023-05-01T00:38:05.818Z,88160.00
2023-05-01T00:39:05.796Z,88156.00
2023-05-01T00:40:05.769Z,88156.00
2023-05-01T00:41:05.751Z,88154.00
2023-05-01T00:42:06.456Z,88154.00
2023-05-01T00:43:05.745Z,88156.00
2023-05-01T00:44:05.738Z,88154.00
2023-05-01T00:45:05.713Z,88152.00
2023-05-01T00:46:05.817Z,88154.00
2023-05-01T00:47:05.702Z,88154.00
2023-05-01T00:48:05.711Z,88156.00
2023-05-01T00:49:05.704Z,88154.00
2023-05-01T00:50:05.671Z,88152.00
2023-05-01T00:51:05.656Z,88152.00
2023-05-01T00:52:05.654Z,88152.00
2023-05-01T00:53:05.646Z,88152.00
2023-05-01T00:54:05.644Z,88150.00
2023-05-01T00:55:05.666Z,88152.00
2023-05-01T00:56:05.629Z,88148.00
2023-05-01T00:57:05.627Z,88146.00
2023-05-01T00:58:05.671Z,88150.00
2023-05-01T00:59:05.616Z,88150.00
2023-05-01T01:00:05.602Z,88148.00
2023-05-01T01:01:05.656Z,88148.00
2023-05-01T01:02:05.594Z,88148.00
2023-05-01T01:03:05.586Z,88144.00
2023-05-01T01:04:05.612Z,88152.00
2023-05-01T01:05:05.558Z,88148.00
2023-05-01T01:06:05.569Z,88146.00
2023-05-01T01:07:05.540Z,88144.00
2023-05-01T01:08:05.563Z,88148.00
2023-05-01T01:09:05.531Z,88150.00
2023-05-01T01:10:05.532Z,88146.00
2023-05-01T01:11:05.503Z,88148.00
2023-05-01T01:12:05.506Z,88146.00
2023-05-01T01:13:05.501Z,88144.00
2023-05-01T01:14:05.488Z,88144.00
2023-05-01T01:15:05.483Z,88144.00
2023-05-01T01:16:05.475Z,88146.00
2023-05-01T01:17:05.507Z,88142.00
2023-05-01T01:18:05.573Z,88144.00
2023-05-01T01:19:05.508Z,88146.00
2023-05-01T01:20:05.540Z,88146.00
2023-05-01T01:21:05.604Z,88146.00
2023-05-01T01:22:05.552Z,88146.00
2023-05-01T01:23:05.575Z,88142.00
2023-05-01T01:24:05.616Z,88146.00
2023-05-01T01:25:05.610Z,88146.00
2023-05-01T01:26:05.612Z,88146.00
2023-05-01T01:27:05.630Z,88148.00
2023-05-01T01:28:05.643Z,88148.00
2023-05-01T01:29:05.650Z,88142.00
2023-05-01T01:30:05.663Z,88144.00
2023-05-01T01:31:05.719Z,88144.00
2023-05-01T01:32:05.695Z,88150.00
2023-05-01T01:33:05.731Z,88144.00
2023-05-01T01:34:05.692Z,88150.00
2023-05-01T01:35:05.722Z,88148.00
2023-05-01T01:36:05.742Z,88148.00
2023-05-01T01:37:05.755Z,88146.00
2023-05-01T01:38:05.775Z,88146.00
2023-05-01T01:39:05.786Z,88148.00
2023-05-01T01:40:05.798Z,88148.00
2023-05-01T01:41:05.843Z,88146.00
2023-05-01T01:42:05.826Z,88144.00
2023-05-01T01:43:05.845Z,88146.00
2023-05-01T01:44:05.882Z,88146.00
2023-05-01T01:45:05.898Z,88148.00
2023-05-01T01:46:05.934Z,88148.00
2023-05-01T01:47:05.921Z,88150.00
2023-05-01T01:48:05.986Z,88146.00
2023-05-01T01:49:05.936Z,88148.00
2023-05-01T01:50:05.968Z,88144.00
2023-05-01T01:51:05.971Z,88146.00
2023-05-01T01:52:06.071Z,88142.00
2023-05-01T01:53:05.968Z,88144.00
2023-05-01T01:54:06.028Z,88140.00
2023-05-01T01:55:06.007Z,88146.00
2023-05-01T01:56:05.966Z,88142.00
2023-05-01T01:57:05.972Z,88144.00
2023-05-01T01:58:05.953Z,88146.00
2023-05-01T01:59:06.034Z,88144.00
2023-05-01T02:00:05.940Z,88148.00
2023-05-01T02:01:05.959Z,88146.00
2023-05-01T02:02:05.990Z,88142.00
2023-05-01T02:03:06.080Z,88142.00
2023-05-01T02:04:05.988Z,88142.00
2023-05-01T02:05:05.931Z,88142.00
2023-05-01T02:06:06.006Z,88142.00
2023-05-01T02:07:05.985Z,88142.00
2023-05-01T02:08:06.019Z,88144.00
2023-05-01T02:09:06.005Z,88148.00
2023-05-01T02:10:06.035Z,88144.00
2023-05-01T02:11:06.030Z,88144.00
2023-05-01T02:12:06.029Z,88144.00
2023-05-01T02:13:06.045Z,88150.00
2023-05-01T02:14:06.076Z,88146.00
2023-05-01T02:15:06.079Z,88148.00
2023-05-01T02:16:06.107Z,88148.00
2023-05-01T02:17:06.088Z,88142.00
2023-05-01T02:18:06.143Z,88142.00
2023-05-01T02:19:06.107Z,88140.00
2023-05-01T02:20:06.116Z,88138.00
2023-05-01T02:21:06.136Z,88140.00
2023-05-01T02:22:06.152Z,88140.00
2023-05-01T02:23:06.149Z,88136.00
2023-05-01T02:24:06.154Z,88138.00
2023-05-01T02:25:06.174Z,88136.00
2023-05-01T02:26:06.166Z,88132.00
2023-05-01T02:27:06.189Z,88130.00
2023-05-01T02:28:06.208Z,88128.00
2023-05-01T02:29:06.251Z,88128.00
2023-05-01T02:30:06.248Z,88130.00
2023-05-01T02:31:06.295Z,88126.00
2023-05-01T02:32:06.355Z,88128.00
2023-05-01T02:33:06.315Z,88126.00
2023-05-01T02:34:06.271Z,88126.00
2023-05-01T02:35:06.304Z,88124.00
2023-05-01T02:36:06.346Z,88126.00
2023-05-01T02:37:06.332Z,88124.00
2023-05-01T02:38:06.341Z,88121.00
2023-05-01T02:39:06.346Z,88121.00
2023-05-01T02:40:06.383Z,88121.00
2023-05-01T02:41:06.366Z,88121.00
2023-05-01T02:42:06.396Z,88119.00
2023-05-01T02:43:06.371Z,88122.00
2023-05-01T02:44:06.385Z,88121.00
2023-05-01T02:45:06.427Z,88121.00
2023-05-01T02:46:06.546Z,88122.00
2023-05-01T02:47:06.448Z,88119.00
2023-05-01T02:48:06.497Z,88121.00
2023-05-01T02:49:06.471Z,88119.00
2023-05-01T02:50:06.476Z,88117.00
2023-05-01T02:51:06.504Z,88117.00
2023-05-01T02:52:06.500Z,88117.00
2023-05-01T02:53:06.524Z,88113.00
2023-05-01T02:54:06.536Z,88113.00
2023-05-01T02:55:06.558Z,88113.00
2023-05-01T02:56:06.574Z,88113.00
2023-05-01T02:57:06.616Z,88109.00
2023-05-01T02:58:06.617Z,88113.00
2023-05-01T02:59:06.637Z,88111.00
2023-05-01T03:00:06.631Z,88109.00
2023-05-01T03:01:06.711Z,88109.00
2023-05-01T03:02:06.674Z,88109.00
2023-05-01T03:03:06.738Z,88109.00
2023-05-01T03:04:06.801Z,88107.00
2023-05-01T03:05:06.735Z,88109.00
2023-05-01T03:06:06.785Z,88107.00
2023-05-01T03:07:06.787Z,88103.00
2023-05-01T03:08:06.799Z,88105.00
2023-05-01T03:09:06.828Z,88107.00
2023-05-01T03:10:06.845Z,88103.00
2023-05-01T03:11:06.848Z,88103.00
2023-05-01T03:12:06.847Z,88099.00
2023-05-01T03:13:06.848Z,88103.00
2023-05-01T03:14:06.854Z,88097.00
2023-05-01T03:15:06.883Z,88097.00
2023-05-01T03:16:06.925Z,88101.00
2023-05-01T03:17:06.919Z,88099.00
2023-05-01T03:18:07.073Z,88091.00
2023-05-01T03:19:06.911Z,88095.00
2023-05-01T03:20:06.971Z,88093.00
2023-05-01T03:21:06.990Z,88091.00
2023-05-01T03:22:06.997Z,88093.00
2023-05-01T03:23:07.037Z,88091.00
2023-05-01T03:24:07.056Z,88087.00
2023-05-01T03:25:07.082Z,88087.00
2023-05-01T03:26:07.108Z,88085.00
2023-05-01T03:27:07.110Z,88083.00
2023-05-01T03:28:07.147Z,88085.00
2023-05-01T03:29:07.116Z,88085.00
2023-05-01T03:30:07.130Z,88089.00
2023-05-01T03:31:07.135Z,88087.00
2023-05-01T03:32:07.148Z,88087.00
2023-05-01T03:33:07.177Z,88087.00
2023-05-01T03:34:07.116Z,88083.00
2023-05-01T03:35:07.130Z,88083.00
2023-05-01T03:36:07.162Z,88081.00
2023-05-01T03:37:07.227Z,88081.00
2023-05-01T03:38:07.153Z,88079.00
2023-05-01T03:39:07.149Z,88077.00
2023-05-01T03:40:07.148Z,88079.00
2023-05-01T03:41:07.525Z,88077.00
2023-05-01T03:42:07.187Z,88079.00
2023-05-01T03:43:07.189Z,88075.00
2023-05-01T03:44:07.198Z,88075.00
2023-05-01T03:45:07.220Z,88075.00
2023-05-01T03:46:07.254Z,88079.00
2023-05-01T03:47:07.235Z,88077.00
2023-05-01T03:48:07.293Z,88077.00
2023-05-01T03:49:07.253Z,88071.00
2023-05-01T03:50:07.267Z,88075.00
2023-05-01T03:51:07.276Z,88075.00
2023-05-01T03:52:07.270Z,88069.00
2023-05-01T03:53:07.368Z,88067.00
2023-05-01T03:54:07.276Z,88073.00
2023-05-01T03:55:07.269Z,88073.00
2023-05-01T03:56:07.281Z,88073.00
2023-05-01T03:57:07.281Z,88069.00
2023-05-01T03:58:07.261Z,88069.00
2023-05-01T03:59:07.260Z,88071.00
2023-05-01T04:00:07.261Z,88069.00
2023-05-01T04:01:07.281Z,88071.00
2023-05-01T04:02:07.363Z,88073.00
2023-05-01T04:03:07.330Z,88067.00
2023-05-01T04:04:07.363Z,88071.00
2023-05-01T04:05:07.374Z,88067.00
2023-05-01T04:06:07.382Z,88066.00
2023-05-01T04:07:07.347Z,88067.00
2023-05-01T04:08:07.314Z,88066.00
2023-05-01T04:09:07.573Z,88066.00
2023-05-01T04:10:07.351Z,88064.00
2023-05-01T04:11:07.347Z,88064.00
2023-05-01T04:12:07.369Z,88066.00
2023-05-01T04:13:07.374Z,88064.00
2023-05-01T04:14:07.391Z,88066.00
2023-05-01T04:15:07.392Z,88066.00
2023-05-01T04:16:07.412Z,88066.00
2023-05-01T04:17:07.414Z,88067.00
2023-05-01T04:18:07.507Z,88062.00
2023-05-01T04:19:07.437Z,88062.00
2023-05-01T04:20:07.466Z,88067.00
2023-05-01T04:21:07.515Z,88060.00
2023-05-01T04:22:07.481Z,88066.00
2023-05-01T04:23:07.509Z,88064.00
2023-05-01T04:24:07.550Z,88060.00
2023-05-01T04:25:07.657Z,88062.00
2023-05-01T04:26:07.502Z,88062.00
2023-05-01T04:27:07.530Z,88060.00
2023-05-01T04:28:07.616Z,88060.00
2023-05-01T04:29:07.483Z,88060.00
2023-05-01T04:30:07.493Z,88060.00
2023-05-01T04:31:07.552Z,88060.00
2023-05-01T04:32:07.574Z,88060.00
2023-05-01T04:33:07.529Z,88058.00
2023-05-01T04:34:07.485Z,88060.00
2023-05-01T04:35:07.491Z,88054.00
2023-05-01T04:36:07.521Z,88054.00
2023-05-01T04:37:07.528Z,88054.00
2023-05-01T04:38:07.560Z,88054.00
2023-05-01T04:39:07.630Z,88056.00
2023-05-01T04:40:08.616Z,88056.00
2023-05-01T04:41:07.685Z,88052.00
2023-05-01T04:42:07.606Z,88056.00
2023-05-01T04:43:07.614Z,88054.00
2023-05-01T04:44:07.609Z,88060.00
2023-05-01T04:45:07.607Z,88052.00
2023-05-01T04:46:07.711Z,88050.00
2023-05-01T04:47:07.678Z,88052.00
2023-05-01T04:48:07.674Z,88058.00
2023-05-01T04:49:07.588Z,88056.00
2023-05-01T04:50:07.578Z,88056.00
2023-05-01T04:51:07.571Z,88056.00
2023-05-01T04:52:07.582Z,88056.00
2023-05-01T04:53:07.580Z,88058.00
2023-05-01T04:54:07.576Z,88062.00
2023-05-01T04:55:07.572Z,88058.00
2023-05-01T04:56:07.580Z,88056.00
2023-05-01T04:57:07.589Z,88058.00
2023-05-01T04:58:07.582Z,88060.00
2023-05-01T04:59:07.593Z,88058.00
2023-05-01T05:00:07.589Z,88062.00
2023-05-01T05:01:07.612Z,88060.00
2023-05-01T05:02:07.623Z,88060.00
2023-05-01T05:03:07.661Z,88064.00
2023-05-01T05:04:07.692Z,88064.00
2023-05-01T05:05:07.585Z,88067.00
2023-05-01T05:06:07.649Z,88066.00
2023-05-01T05:07:07.634Z,88066.00
2023-05-01T05:08:07.591Z,88064.00
2023-05-01T05:09:07.613Z,88062.00
2023-05-01T05:10:07.657Z,88067.00
2023-05-01T05:11:07.607Z,88066.00
2023-05-01T05:12:07.603Z,88064.00
2023-05-01T05:13:07.580Z,88064.00
2023-05-01T05:14:07.575Z,88064.00
2023-05-01T05:15:07.589Z,88062.00
2023-05-01T05:16:07.614Z,88062.00
2023-05-01T05:17:07.584Z,88064.00
2023-05-01T05:18:07.767Z,88064.00
2023-05-01T05:19:07.598Z,88064.00
2023-05-01T05:20:07.572Z,88064.00
2023-05-01T05:21:07.641Z,88064.00
2023-05-01T05:22:07.615Z,88062.00
2023-05-01T05:23:08.613Z,88062.00
2023-05-01T05:24:07.610Z,88066.00
2023-05-01T05:25:07.572Z,88062.00
2023-05-01T05:26:07.584Z,88062.00
2023-05-01T05:27:07.577Z,88062.00
2023-05-01T05:28:07.585Z,88062.00
2023-05-01T05:29:07.579Z,88060.00
2023-05-01T05:30:07.639Z,88062.00
2023-05-01T05:31:07.657Z,88062.00
2023-05-01T05:32:07.677Z,88060.00
2023-05-01T05:33:07.719Z,88060.00
2023-05-01T05:34:07.608Z,88064.00
2023-05-01T05:35:07.593Z,88062.00
2023-05-01T05:36:07.585Z,88060.00
2023-05-01T05:37:07.582Z,88056.00
2023-05-01T05:38:07.575Z,88060.00
2023-05-01T05:39:07.553Z,88058.00
2023-05-01T05:40:07.583Z,88058.00
2023-05-01T05:41:07.535Z,88062.00
2023-05-01T05:42:07.526Z,88062.00
2023-05-01T05:43:07.522Z,88060.00
2023-05-01T05:44:07.522Z,88064.00
2023-05-01T05:45:07.513Z,88064.00
2023-05-01T05:46:07.547Z,88060.00
2023-05-01T05:47:07.537Z,88060.00
2023-05-01T05:48:07.542Z,88060.00
2023-05-01T05:49:07.494Z,88066.00
2023-05-01T05:50:07.504Z,88058.00
2023-05-01T05:51:08.089Z,88064.00
2023-05-01T05:52:07.478Z,88058.00
2023-05-01T05:53:07.476Z,88060.00
2023-05-01T05:54:07.492Z,88060.00
2023-05-01T05:55:07.439Z,88062.00
2023-05-01T05:56:07.473Z,88064.00
2023-05-01T05:57:07.427Z,88062.00
2023-05-01T05:58:07.414Z,88058.00
2023-05-01T05:59:07.409Z,88058.00
2023-05-01T06:00:07.485Z,88060.00
2023-05-01T06:01:07.408Z,88054.00
2023-05-01T06:02:07.449Z,88058.00
2023-05-01T06:03:07.482Z,88058.00
2023-05-01T06:04:07.385Z,88062.00
2023-05-01T06:05:07.414Z,88062.00
2023-05-01T06:06:07.468Z,88060.00
2023-05-01T06:07:07.594Z,88058.00
2023-05-01T06:08:07.401Z,88060.00
2023-05-01T06:09:07.376Z,88056.00
2023-05-01T06:10:07.349Z,88058.00
2023-05-01T06:11:07.366Z,88062.00
2023-05-01T06:12:07.357Z,88058.00
2023-05-01T06:13:12.946Z,88056.00
2023-05-01T06:14:08.335Z,88058.00
2023-05-01T06:15:07.314Z,88060.00
2023-05-01T06:16:07.398Z,88060.00
2023-05-01T06:17:07.302Z,88054.00
2023-05-01T06:18:07.366Z,88054.00
2023-05-01T06:19:08.078Z,88058.00
2023-05-01T06:20:09.094Z,88060.00
2023-05-01T06:21:07.262Z,88058.00
2023-05-01T06:22:07.310Z,88052.00
2023-05-01T06:23:07.279Z,88052.00
2023-05-01T06:24:07.282Z,88060.00
2023-05-01T06:25:07.271Z,88056.00
2023-05-01T06:26:07.261Z,88052.00
2023-05-01T06:27:07.249Z,88056.00
2023-05-01T06:28:07.325Z,88060.00
2023-05-01T06:29:07.385Z,88062.00
2023-05-01T06:30:07.335Z,88058.00
2023-05-01T06:31:07.292Z,88058.00
2023-05-01T06:32:07.271Z,88056.00
2023-05-01T06:33:07.337Z,88056.00
2023-05-01T06:34:07.258Z,88056.00
2023-05-01T06:35:07.214Z,88056.00
2023-05-01T06:36:07.213Z,88060.00
2023-05-01T06:37:07.202Z,88056.00
2023-05-01T06:38:07.282Z,88058.00
2023-05-01T06:39:07.222Z,88060.00
2023-05-01T06:40:07.187Z,88056.00
2023-05-01T06:41:07.207Z,88060.00
2023-05-01T06:42:07.192Z,88056.00
2023-05-01T06:43:07.202Z,88056.00
2023-05-01T06:44:07.191Z,88058.00
2023-05-01T06:45:07.220Z,88058.00
2023-05-01T06:46:07.264Z,88060.00
2023-05-01T06:47:07.365Z,88060.00
2023-05-01T06:48:07.324Z,88060.00
2023-05-01T06:49:08.100Z,88056.00
2023-05-01T06:50:07.273Z,88058.00
2023-05-01T06:51:07.288Z,88060.00
2023-05-01T06:52:07.339Z,88058.00
2023-05-01T06:53:07.322Z,88056.00
2023-05-01T06:54:07.330Z,88056.00
2023-05-01T06:55:07.322Z,88058.00
2023-05-01T06:56:07.352Z,88060.00
2023-05-01T06:57:07.384Z,88058.00
2023-05-01T06:58:16.581Z,88060.00
2023-05-01T06:59:08.382Z,88058.00
2023-05-01T07:00:07.381Z,88062.00
2023-05-01T07:01:07.412Z,88058.00
2023-05-01T07:02:07.391Z,88056.00
2023-05-01T07:03:07.383Z,88058.00
2023-05-01T07:04:07.338Z,88056.00
2023-05-01T07:05:07.402Z,88058.00
2023-05-01T07:06:07.366Z,88056.00
2023-05-01T07:07:07.347Z,88058.00
2023-05-01T07:08:07.416Z,88060.00
2023-05-01T07:09:07.464Z,88058.00
2023-05-01T07:10:07.580Z,88062.00
2023-05-01T07:11:10.159Z,88064.00
2023-05-01T07:12:07.761Z,88062.00
2023-05-01T07:13:07.839Z,88064.00
2023-05-01T07:14:07.881Z,88062.00
2023-05-01T07:15:07.944Z,88062.00
2023-05-01T07:16:08.045Z,88060.00
2023-05-01T07:17:08.084Z,88062.00
2023-05-01T07:18:08.293Z,88062.00
2023-05-01T07:19:08.165Z,88062.00
2023-05-01T07:20:08.243Z,88064.00
2023-05-01T07:21:08.256Z,88067.00
2023-05-01T07:22:08.293Z,88066.00
2023-05-01T07:23:08.292Z,88067.00
2023-05-01T07:24:08.372Z,88064.00
2023-05-01T07:25:08.416Z,88062.00
2023-05-01T07:26:08.472Z,88064.00
2023-05-01T07:27:08.508Z,88067.00
2023-05-01T07:28:08.571Z,88066.00
2023-05-01T07:29:08.657Z,88064.00
2023-05-01T07:30:08.719Z,88069.00
2023-05-01T07:31:08.770Z,88066.00
2023-05-01T07:32:08.827Z,88066.00
2023-05-01T07:33:08.800Z,88062.00
2023-05-01T07:34:08.756Z,88060.00
2023-05-01T07:35:08.721Z,88064.00
2023-05-01T07:36:08.736Z,88062.00
2023-05-01T07:37:08.729Z,88062.00
2023-05-01T07:38:08.699Z,88054.00
2023-05-01T07:39:08.691Z,88060.00
2023-05-01T07:40:08.738Z,88060.00
2023-05-01T07:41:08.765Z,88062.00
2023-05-01T07:42:08.890Z,88060.00
2023-05-01T07:43:08.901Z,88066.00
2023-05-01T07:44:08.980Z,88062.00
2023-05-01T07:45:09.056Z,88062.00
2023-05-01T07:46:09.081Z,88064.00
2023-05-01T07:47:09.196Z,88066.00
2023-05-01T07:48:09.292Z,88064.00
2023-05-01T07:49:09.271Z,88067.00
2023-05-01T07:50:09.387Z,88071.00
2023-05-01T07:51:09.315Z,88067.00
2023-05-01T07:52:09.319Z,88066.00
2023-05-01T07:53:09.309Z,88069.00
2023-05-01T07:54:09.309Z,88064.00
2023-05-01T07:55:09.319Z,88067.00
2023-05-01T07:56:09.297Z,88069.00
2023-05-01T07:57:09.292Z,88067.00
2023-05-01T07:58:09.254Z,88075.00
2023-05-01T07:59:09.233Z,88077.00
2023-05-01T08:00:09.238Z,88073.00
2023-05-01T08:01:09.265Z,88069.00
2023-05-01T08:02:09.317Z,88069.00
2023-05-01T08:03:09.588Z,88073.00
2023-05-01T08:04:09.451Z,88069.00
2023-05-01T08:05:09.452Z,88073.00
2023-05-01T08:06:09.555Z,88069.00
2023-05-01T08:07:09.542Z,88073.00
2023-05-01T08:08:09.644Z,88073.00
2023-05-01T08:09:09.750Z,88067.00
2023-05-01T08:10:09.721Z,88075.00
2023-05-01T08:11:09.772Z,88071.00
2023-05-01T08:12:09.825Z,88079.00
2023-05-01T08:13:09.886Z,88073.00
2023-05-01T08:14:09.945Z,88073.00
2023-05-01T08:15:10.001Z,88071.00
2023-05-01T08:16:10.166Z,88073.00
2023-05-01T08:17:10.118Z,88071.00
2023-05-01T08:18:10.221Z,88073.00
2023-05-01T08:19:10.213Z,88075.00
2023-05-01T08:20:10.304Z,88071.00
2023-05-01T08:21:10.320Z,88071.00
2023-05-01T08:22:10.390Z,88069.00
2023-05-01T08:23:10.448Z,88075.00
2023-05-01T08:24:10.486Z,88077.00
2023-05-01T08:25:10.737Z,88075.00
2023-05-01T08:26:10.603Z,88077.00
2023-05-01T08:27:10.705Z,88079.00
2023-05-01T08:28:10.706Z,88077.00
2023-05-01T08:29:10.762Z,88079.00
2023-05-01T08:30:10.832Z,88077.00
2023-05-01T08:31:11.027Z,88077.00
2023-05-01T08:32:10.920Z,88077.00
2023-05-01T08:33:11.040Z,88079.00
2023-05-01T08:34:11.048Z,88077.00
2023-05-01T08:35:11.092Z,88077.00
2023-05-01T08:36:11.166Z,88077.00
2023-05-01T08:37:11.260Z,88081.00
2023-05-01T08:38:11.300Z,88079.00
2023-05-01T08:39:11.329Z,88081.00
2023-05-01T08:40:11.511Z,88081.00
2023-05-01T08:41:11.454Z,88075.00
2023-05-01T08:42:11.529Z,88081.00
2023-05-01T08:43:11.526Z,88079.00
2023-05-01T08:44:13.139Z,88079.00
2023-05-01T08:45:11.627Z,88079.00
2023-05-01T08:46:11.698Z,88079.00
2023-05-01T08:47:12.189Z,88079.00
2023-05-01T08:48:11.988Z,88083.00
2023-05-01T08:49:11.865Z,88077.00
2023-05-01T08:50:12.011Z,88081.00
2023-05-01T08:51:12.006Z,88081.00
2023-05-01T08:52:11.930Z,88077.00
2023-05-01T08:53:12.161Z,88077.00
2023-05-01T08:54:11.970Z,88081.00
2023-05-01T08:55:12.023Z,88079.00
2023-05-01T08:56:12.076Z,88079.00
2023-05-01T08:57:12.100Z,88079.00
2023-05-01T08:58:12.166Z,88083.00
2023-05-01T08:59:12.194Z,88087.00
2023-05-01T09:00:12.229Z,88085.00
2023-05-01T09:01:12.303Z,88087.00
2023-05-01T09:02:12.568Z,88085.00
2023-05-01T09:03:12.436Z,88089.00
2023-05-01T09:04:12.455Z,88085.00
2023-05-01T09:05:12.477Z,88083.00
2023-05-01T09:06:12.547Z,88089.00
2023-05-01T09:07:12.511Z,88089.00
2023-05-01T09:08:12.548Z,88089.00
2023-05-01T09:09:12.602Z,88085.00
2023-05-01T09:10:12.622Z,88085.00
2023-05-01T09:11:12.686Z,88085.00
2023-05-01T09:12:12.710Z,88089.00
2023-05-01T09:13:12.782Z,88087.00
2023-05-01T09:14:12.786Z,88087.00
2023-05-01T09:15:12.815Z,88087.00
2023-05-01T09:16:12.883Z,88089.00
2023-05-01T09:17:12.885Z,88087.00
2023-05-01T09:18:12.995Z,88089.00
2023-05-01T09:19:12.990Z,88089.00
2023-05-01T09:20:13.021Z,88085.00
2023-05-01T09:21:13.064Z,88089.00
2023-05-01T09:22:13.103Z,88089.00
2023-05-01T09:23:13.142Z,88095.00
2023-05-01T09:24:13.173Z,88093.00
2023-05-01T09:25:13.225Z,88089.00
2023-05-01T09:26:13.278Z,88091.00
2023-05-01T09:27:13.368Z,88087.00
2023-05-01T09:28:13.393Z,88085.00
2023-05-01T09:29:13.412Z,88085.00
2023-05-01T09:30:13.448Z,88089.00
2023-05-01T09:31:13.500Z,88087.00
2023-05-01T09:32:13.681Z,88085.00
2023-05-01T09:33:13.690Z,88085.00
2023-05-01T09:34:13.605Z,88089.00
2023-05-01T09:35:13.657Z,88085.00
2023-05-01T09:36:13.683Z,88095.00
2023-05-01T09:37:13.758Z,88087.00
2023-05-01T09:38:13.786Z,88087.00
2023-05-01T09:39:13.816Z,88085.00
2023-05-01T09:40:13.954Z,88087.00
2023-05-01T09:41:13.932Z,88085.00
2023-05-01T09:42:13.957Z,88087.00
2023-05-01T09:43:14.029Z,88085.00
2023-05-01T09:44:14.042Z,88087.00
2023-05-01T09:45:14.102Z,88085.00
2023-05-01T09:46:14.176Z,88085.00
2023-05-01T09:47:14.172Z,88089.00
2023-05-01T09:48:14.214Z,88091.00
2023-05-01T09:49:14.259Z,88083.00
2023-05-01T09:50:14.297Z,88081.00
2023-05-01T09:51:14.289Z,88085.00
2023-05-01T09:52:14.289Z,88085.00
2023-05-01T09:53:14.331Z,88087.00
2023-05-01T09:54:14.264Z,88089.00
2023-05-01T09:55:14.280Z,88091.00
2023-05-01T09:56:14.261Z,88083.00
2023-05-01T09:57:14.237Z,88085.00
2023-05-01T09:58:14.240Z,88085.00
2023-05-01T09:59:14.228Z,88085.00
2023-05-01T10:00:14.234Z,88085.00
2023-05-01T10:01:14.263Z,88083.00
2023-05-01T10:02:14.268Z,88077.00
2023-05-01T10:03:14.309Z,88081.00
2023-05-01T10:04:14.249Z,88081.00
2023-05-01T10:05:14.283Z,88083.00
2023-05-01T10:06:14.377Z,88081.00
2023-05-01T10:07:14.406Z,88079.00
2023-05-01T10:08:14.455Z,88079.00
2023-05-01T10:09:14.447Z,88081.00
2023-05-01T10:10:14.485Z,88079.00
2023-05-01T10:11:15.178Z,88087.00
2023-05-01T10:12:14.592Z,88083.00
2023-05-01T10:13:14.630Z,88081.00
2023-05-01T10:14:14.732Z,88085.00
2023-05-01T10:15:24.808Z,88087.00
2023-05-01T10:16:15.738Z,88089.00
2023-05-01T10:17:14.745Z,88085.00
2023-05-01T10:18:14.764Z,88079.00
2023-05-01T10:19:14.673Z,88083.00
2023-05-01T10:20:14.654Z,88081.00
2023-05-01T10:21:14.772Z,88081.00
2023-05-01T10:22:14.655Z,88085.00
2023-05-01T10:23:14.632Z,88083.00
2023-05-01T10:24:14.607Z,88083.00
2023-05-01T10:25:15.189Z,88087.00
2023-05-01T10:26:14.746Z,88083.00
2023-05-01T10:27:14.793Z,88085.00
2023-05-01T10:28:14.716Z,88085.00
2023-05-01T10:29:14.764Z,88085.00
2023-05-01T10:30:14.822Z,88085.00
2023-05-01T10:31:14.959Z,88083.00
2023-05-01T10:32:14.900Z,88083.00
2023-05-01T10:33:15.024Z,88079.00
2023-05-01T10:34:15.017Z,88077.00
2023-05-01T10:35:14.963Z,88079.00
2023-05-01T10:36:14.969Z,88081.00
2023-05-01T10:37:14.966Z,88079.00
2023-05-01T10:38:14.961Z,88079.00
2023-05-01T10:39:14.934Z,88081.00
2023-05-01T10:40:14.904Z,88081.00
2023-05-01T10:41:14.906Z,88081.00
2023-05-01T10:42:14.913Z,88081.00
2023-05-01T10:43:14.913Z,88079.00
2023-05-01T10:44:14.878Z,88077.00
2023-05-01T10:45:14.880Z,88075.00
2023-05-01T10:46:14.925Z,88077.00
2023-05-01T10:47:14.870Z,88081.00
2023-05-01T10:48:14.849Z,88079.00
2023-05-01T10:49:14.849Z,88077.00
2023-05-01T10:50:14.877Z,88081.00
2023-05-01T10:51:14.821Z,88079.00
2023-05-01T10:52:14.818Z,88077.00
2023-05-01T10:53:14.893Z,88077.00
2023-05-01T10:54:14.792Z,88075.00
2023-05-01T10:55:14.797Z,88077.00
2023-05-01T10:56:14.827Z,88081.00
2023-05-01T10:57:14.798Z,88081.00
2023-05-01T10:58:14.840Z,88077.00
2023-05-01T10:59:14.792Z,88081.00
2023-05-01T11:00:14.848Z,88081.00
2023-05-01T11:01:14.782Z,88079.00
2023-05-01T11:02:14.790Z,88079.00
2023-05-01T11:03:14.784Z,88073.00
2023-05-01T11:04:14.731Z,88073.00
2023-05-01T11:05:14.766Z,88075.00
2023-05-01T11:06:14.829Z,88075.00
2023-05-01T11:07:14.830Z,88071.00
2023-05-01T11:08:14.697Z,88075.00
2023-05-01T11:09:14.732Z,88073.00
2023-05-01T11:10:14.746Z,88071.00
2023-05-01T11:11:14.854Z,88069.00
2023-05-01T11:12:14.822Z,88071.00
2023-05-01T11:13:14.889Z,88069.00
2023-05-01T11:14:15.703Z,88067.00
2023-05-01T11:15:14.966Z,88066.00
2023-05-01T11:16:15.056Z,88069.00
2023-05-01T11:17:15.048Z,88066.00
2023-05-01T11:18:15.040Z,88067.00
2023-05-01T11:19:14.999Z,88067.00
2023-05-01T11:20:15.000Z,88067.00
2023-05-01T11:21:15.024Z,88067.00
2023-05-01T11:22:14.967Z,88067.00
2023-05-01T11:23:14.976Z,88066.00
2023-05-01T11:24:14.944Z,88066.00
2023-05-01T11:25:14.941Z,88062.00
2023-05-01T11:26:14.936Z,88064.00
2023-05-01T11:27:14.947Z,88062.00
2023-05-01T11:28:14.947Z,88058.00
2023-05-01T11:29:14.920Z,88056.00
2023-05-01T11:30:14.917Z,88056.00
2023-05-01T11:31:14.928Z,88056.00
2023-05-01T11:32:15.025Z,88054.00
2023-05-01T11:33:14.958Z,88048.00
2023-05-01T11:34:14.888Z,88050.00
2023-05-01T11:35:14.897Z,88046.00
2023-05-01T11:36:14.922Z,88044.00
2023-05-01T11:37:14.965Z,88044.00
2023-05-01T11:38:14.992Z,88042.00
2023-05-01T11:39:15.002Z,88040.00
2023-05-01T11:40:15.048Z,88038.00
2023-05-01T11:41:15.042Z,88036.00
2023-05-01T11:42:15.216Z,88034.00
2023-05-01T11:43:15.027Z,88036.00
2023-05-01T11:44:15.003Z,88034.00